Time;durP1;ratioP1;P1;durP2;ratioP2;P2;SDS_P1;SDS_P2;PMS_P1;PMS_P2;Temp;Humidity;BMP_temperature;BMP_pressure;BME280_temperature;BME280_humidity;BME280_pressure;Samples;Min_cycle;Max_cycle;Signal;HPM_P1;HPM_P2
2023/07/29 00:02:11;;;;;;;17.30;13.70;;;;;;;;;;5079187;28;20478;-80
2023/07/29 00:04:38;;;;;;;15.33;13.67;;;;;;;;;;5078583;28;20486;-81
2023/07/29 00:07:04;;;;;;;19.77;13.30;;;;;;;;;;5077744;28;20478;-80
2023/07/29 00:09:31;;;;;;;18.57;15.57;;;;;;;;;;5046259;28;20515;-80
2023/07/29 00:11:57;;;;;;;26.50;21.37;;;;;;;;;;5078826;28;20979;-80
2023/07/29 00:14:24;;;;;;;26.20;21.97;;;;;;;;;;5077229;28;20467;-80
2023/07/29 00:16:50;;;;;;;22.23;19.57;;;;;;;;;;5077983;28;20481;-80
2023/07/29 00:19:20;;;;;;;28.67;23.20;;;;;;;;;;5076358;28;20538;-80
2023/07/29 00:21:46;;;;;;;25.30;22.60;;;;;;;;;;5081308;28;20855;-80
2023/07/29 00:24:13;;;;;;;23.67;21.27;;;;;;;;;;5078271;28;20446;-81
2023/07/29 00:26:39;;;;;;;24.53;21.60;;;;;;;;;;5082247;28;20462;-80
2023/07/29 00:29:05;;;;;;;24.50;21.50;;;;;;;;;;5062671;28;20447;-80
2023/07/29 00:31:32;;;;;;;22.23;18.60;;;;;;;;;;5077720;28;20488;-80
2023/07/29 00:33:59;;;;;;;23.40;20.17;;;;;;;;;;5081851;28;20442;-80
2023/07/29 00:36:27;;;;;;;24.67;19.50;;;;;;;;;;5079006;28;20535;-82
2023/07/29 00:38:56;;;;;;;22.50;19.43;;;;;;;;;;5081003;28;20457;-80
2023/07/29 00:41:23;;;;;;;21.70;19.30;;;;;;;;;;5050477;28;20538;-79
2023/07/29 00:43:50;;;;;;;21.80;19.57;;;;;;;;;;5081947;28;20438;-80
2023/07/29 00:46:17;;;;;;;22.73;18.70;;;;;;;;;;5082339;28;20474;-80
2023/07/29 00:48:44;;;;;;;21.50;19.40;;;;;;;;;;5076904;28;20458;-80
2023/07/29 00:51:11;;;;;;;21.43;19.20;;;;;;;;;;5059333;28;20483;-80
2023/07/29 00:53:39;;;;;;;21.23;19.07;;;;;;;;;;5078871;28;20516;-81
2023/07/29 00:56:05;;;;;;;22.23;17.50;;;;;;;;;;5079456;28;20474;-80
2023/07/29 00:58:32;;;;;;;23.73;21.17;;;;;;;;;;5078144;28;20458;-80
2023/07/29 01:00:58;;;;;;;23.00;19.03;;;;;;;;;;5078866;28;21005;-79
2023/07/29 01:03:25;;;;;;;22.83;19.00;;;;;;;;;;5059764;28;20451;-79
2023/07/29 01:05:59;;;;;;;32.03;22.60;;;;;;;;;;5077293;28;20462;-80
2023/07/29 01:08:30;;;;;;;32.60;22.43;;;;;;;;;;5080128;28;20544;-81
2023/07/29 01:11:01;;;;;;;22.97;18.20;;;;;;;;;;5076335;28;20483;-78
2023/07/29 01:13:30;;;;;;;29.20;21.30;;;;;;;;;;5079307;28;20463;-79
2023/07/29 01:15:59;;;;;;;30.17;19.43;;;;;;;;;;5047808;28;20466;-81
2023/07/29 01:18:28;;;;;;;33.00;20.50;;;;;;;;;;5076750;28;20474;-81
2023/07/29 01:20:56;;;;;;;35.93;21.63;;;;;;;;;;5076591;28;20482;-82
2023/07/29 01:23:26;;;;;;;35.17;21.97;;;;;;;;;;5080579;28;20445;-81
2023/07/29 01:25:52;;;;;;;27.97;19.20;;;;;;;;;;5080067;28;20852;-81
2023/07/29 01:28:19;;;;;;;37.17;20.37;;;;;;;;;;5080813;28;20474;-82
2023/07/29 01:30:46;;;;;;;34.50;21.27;;;;;;;;;;5045944;28;20465;-81
2023/07/29 01:33:16;;;;;;;40.00;21.37;;;;;;;;;;5080886;28;20462;-81
2023/07/29 01:35:47;;;;;;;35.90;22.97;;;;;;;;;;5052045;28;20463;-81
2023/07/29 01:38:15;;;;;;;30.77;20.20;;;;;;;;;;5085500;28;20444;-81
2023/07/29 01:40:43;;;;;;;31.10;22.03;;;;;;;;;;5084499;28;20466;-82
2023/07/29 01:43:10;;;;;;;30.67;22.27;;;;;;;;;;5084268;28;20967;-79
2023/07/29 01:45:38;;;;;;;31.83;21.57;;;;;;;;;;5084929;28;20474;-79
2023/07/29 01:48:05;;;;;;;26.70;19.80;;;;;;;;;;5052559;28;20461;-82
2023/07/29 01:50:31;;;;;;;24.90;21.10;;;;;;;;;;5082563;28;20482;-82
2023/07/29 01:52:58;;;;;;;25.33;21.80;;;;;;;;;;5082259;28;20519;-81
2023/07/29 01:55:26;;;;;;;22.50;18.37;;;;;;;;;;5083101;28;20461;-82
2023/07/29 01:57:53;;;;;;;24.53;18.63;;;;;;;;;;5083183;28;20460;-80
2023/07/29 02:00:21;;;;;;;29.27;19.23;;;;;;;;;;5083692;28;20997;-81
2023/07/29 02:02:48;;;;;;;45.87;19.87;;;;;;;;;;5085228;28;20526;-81
2023/07/29 02:05:14;;;;;;;28.97;18.37;;;;;;;;;;5082007;28;20482;-79
2023/07/29 02:07:41;;;;;;;21.87;17.47;;;;;;;;;;5081280;28;20475;-80
2023/07/29 02:10:08;;;;;;;24.00;18.33;;;;;;;;;;5081391;28;20458;-79
2023/07/29 02:12:34;;;;;;;26.50;18.10;;;;;;;;;;5078325;28;20501;-81
2023/07/29 02:15:04;;;;;;;19.67;17.27;;;;;;;;;;5080642;28;21372;-80
2023/07/29 02:17:31;;;;;;;22.00;18.60;;;;;;;;;;5080541;28;20619;-80
2023/07/29 02:19:57;;;;;;;24.07;19.13;;;;;;;;;;5081234;28;20457;-80
2023/07/29 02:22:24;;;;;;;20.30;17.40;;;;;;;;;;5072130;28;20482;-80
2023/07/29 02:24:50;;;;;;;20.30;17.20;;;;;;;;;;5080535;28;20469;-80
2023/07/29 02:27:17;;;;;;;24.43;18.60;;;;;;;;;;5081372;28;20508;-80
2023/07/29 02:29:43;;;;;;;19.87;17.63;;;;;;;;;;5063041;28;20446;-80
2023/07/29 02:32:11;;;;;;;23.20;19.20;;;;;;;;;;5079586;28;20478;-81
2023/07/29 02:34:37;;;;;;;18.60;16.77;;;;;;;;;;5079313;28;20838;-80
2023/07/29 02:37:04;;;;;;;21.43;16.93;;;;;;;;;;5078079;28;20891;-80
2023/07/29 02:39:31;;;;;;;21.60;17.63;;;;;;;;;;5080227;28;20447;-81
2023/07/29 02:41:58;;;;;;;18.93;16.80;;;;;;;;;;5060268;28;20478;-81
2023/07/29 02:44:24;;;;;;;17.97;15.80;;;;;;;;;;5079165;28;20804;-81
2023/07/29 02:46:55;;;;;;;18.27;16.37;;;;;;;;;;5079372;28;20474;-80
2023/07/29 02:49:23;;;;;;;21.73;18.97;;;;;;;;;;5079881;28;20865;-80
2023/07/29 02:51:50;;;;;;;21.20;17.40;;;;;;;;;;5077074;28;20525;-80
2023/07/29 02:54:16;;;;;;;23.10;20.40;;;;;;;;;;5075756;28;20466;-79
2023/07/29 02:56:44;;;;;;;20.17;16.30;;;;;;;;;;5077840;28;20849;-80
2023/07/29 02:59:11;;;;;;;19.97;17.97;;;;;;;;;;5081435;28;20458;-80
2023/07/29 03:01:37;;;;;;;25.33;18.80;;;;;;;;;;5082522;28;20482;-80
2023/07/29 03:04:04;;;;;;;17.53;15.63;;;;;;;;;;5082175;28;20463;-81
2023/07/29 03:06:32;;;;;;;20.53;18.30;;;;;;;;;;5075984;28;20481;-80
2023/07/29 03:08:58;;;;;;;23.80;19.10;;;;;;;;;;5080550;28;20477;-79
2023/07/29 03:11:24;;;;;;;32.63;21.70;;;;;;;;;;5046693;28;20491;-81
2023/07/29 03:13:51;;;;;;;23.27;20.47;;;;;;;;;;5062035;28;20454;-80
2023/07/29 03:16:18;;;;;;;25.27;21.00;;;;;;;;;;5076333;28;20471;-80
2023/07/29 03:18:44;;;;;;;23.93;20.90;;;;;;;;;;5079073;28;20459;-82
2023/07/29 03:21:11;;;;;;;25.90;21.97;;;;;;;;;;5082415;28;20474;-82
2023/07/29 03:23:39;;;;;;;26.57;21.53;;;;;;;;;;5079820;28;20462;-82
2023/07/29 03:26:10;;;;;;;26.43;21.03;;;;;;;;;;5081817;28;20471;-81
2023/07/29 03:28:36;;;;;;;32.77;23.90;;;;;;;;;;5048968;28;20615;-82
2023/07/29 03:31:03;;;;;;;31.27;24.00;;;;;;;;;;5080888;28;20474;-81
2023/07/29 03:33:29;;;;;;;30.43;24.87;;;;;;;;;;5081060;28;20485;-81
2023/07/29 03:35:56;;;;;;;29.57;24.20;;;;;;;;;;5080742;28;20461;-79
2023/07/29 03:38:23;;;;;;;33.60;25.10;;;;;;;;;;5080547;28;20469;-80
2023/07/29 03:40:51;;;;;;;36.53;27.80;;;;;;;;;;5079969;28;20479;-80
2023/07/29 03:43:17;;;;;;;42.40;28.30;;;;;;;;;;5060144;28;20442;-80
2023/07/29 03:45:44;;;;;;;32.50;24.90;;;;;;;;;;5080602;28;20477;-80
2023/07/29 03:48:10;;;;;;;38.43;27.83;;;;;;;;;;5063461;28;20992;-81
2023/07/29 03:50:37;;;;;;;34.73;26.67;;;;;;;;;;5078555;28;20475;-80
2023/07/29 03:53:04;;;;;;;35.10;26.77;;;;;;;;;;5074898;28;20481;-82
2023/07/29 03:55:30;;;;;;;31.80;26.37;;;;;;;;;;5043886;28;20465;-79
2023/07/29 03:57:58;;;;;;;34.27;26.50;;;;;;;;;;5076504;28;20545;-80
2023/07/29 04:00:25;;;;;;;34.93;27.50;;;;;;;;;;5077351;28;20479;-82
2023/07/29 04:02:51;;;;;;;35.13;27.10;;;;;;;;;;5077772;28;20457;-82
2023/07/29 04:05:18;;;;;;;30.87;24.73;;;;;;;;;;5078869;28;20459;-82
2023/07/29 04:07:45;;;;;;;32.03;24.50;;;;;;;;;;5045244;28;20483;-82
2023/07/29 04:10:11;;;;;;;31.90;22.90;;;;;;;;;;5077037;28;20466;-82
2023/07/29 04:12:39;;;;;;;33.90;25.40;;;;;;;;;;5078344;28;20483;-81
2023/07/29 04:15:08;;;;;;;31.70;24.30;;;;;;;;;;5075728;28;20459;-81
2023/07/29 04:17:34;;;;;;;37.73;26.23;;;;;;;;;;5074110;28;20474;-81
2023/07/29 04:20:03;;;;;;;31.17;23.77;;;;;;;;;;5076362;28;20483;-82
2023/07/29 04:22:29;;;;;;;30.83;23.47;;;;;;;;;;5075261;28;20894;-82
2023/07/29 04:24:55;;;;;;;27.70;23.13;;;;;;;;;;5076151;28;20459;-82
2023/07/29 04:27:22;;;;;;;32.60;24.43;;;;;;;;;;5075564;28;20470;-81
2023/07/29 04:29:50;;;;;;;34.20;26.40;;;;;;;;;;5077557;28;20454;-81
2023/07/29 04:32:17;;;;;;;30.90;24.40;;;;;;;;;;5076240;28;21002;-81
2023/07/29 04:34:44;;;;;;;35.03;26.83;;;;;;;;;;5075620;28;20459;-81
2023/07/29 04:37:11;;;;;;;35.07;24.87;;;;;;;;;;5077886;28;20470;-81
2023/07/29 04:39:37;;;;;;;44.63;26.80;;;;;;;;;;5076404;28;20458;-82
2023/07/29 04:42:04;;;;;;;39.33;27.43;;;;;;;;;;5073498;28;20893;-81
2023/07/29 04:44:31;;;;;;;33.20;25.63;;;;;;;;;;5078291;28;20533;-81
2023/07/29 04:46:58;;;;;;;31.10;25.80;;;;;;;;;;5076504;28;20477;-82
2023/07/29 04:49:26;;;;;;;35.93;25.30;;;;;;;;;;5074429;28;20970;-82
2023/07/29 04:51:53;;;;;;;38.63;26.50;;;;;;;;;;5046088;28;20478;-81
2023/07/29 04:54:21;;;;;;;38.90;28.17;;;;;;;;;;5078190;28;20473;-82
2023/07/29 04:56:47;;;;;;;36.80;27.00;;;;;;;;;;5074814;28;21024;-82
2023/07/29 04:59:14;;;;;;;39.43;27.00;;;;;;;;;;5076843;28;20500;-81
2023/07/29 05:01:42;;;;;;;38.53;26.60;;;;;;;;;;5078062;28;20473;-82
2023/07/29 05:04:08;;;;;;;37.93;25.10;;;;;;;;;;5075040;28;20508;-81
2023/07/29 05:06:36;;;;;;;41.70;32.10;;;;;;;;;;5074263;28;20473;-82
2023/07/29 05:09:13;;;;;;;40.03;27.67;;;;;;;;;;5081876;28;20463;-82
2023/07/29 05:11:40;;;;;;;41.10;30.60;;;;;;;;;;5059878;28;20482;-82
2023/07/29 05:14:06;;;;;;;40.20;27.80;;;;;;;;;;5083235;28;20447;-81
2023/07/29 05:16:32;;;;;;;34.63;25.07;;;;;;;;;;5078560;28;20470;-81
2023/07/29 05:18:59;;;;;;;37.97;25.77;;;;;;;;;;5083091;28;20922;-81
2023/07/29 05:21:25;;;;;;;41.20;26.90;;;;;;;;;;5077259;28;20483;-81
2023/07/29 05:23:53;;;;;;;34.37;26.70;;;;;;;;;;5081372;28;20851;-82
2023/07/29 05:26:19;;;;;;;36.30;27.10;;;;;;;;;;5080892;28;20830;-81
2023/07/29 05:28:47;;;;;;;35.63;24.80;;;;;;;;;;5081360;28;20453;-81
2023/07/29 05:31:13;;;;;;;39.13;26.03;;;;;;;;;;5079872;28;20493;-82
2023/07/29 05:33:39;;;;;;;36.97;25.90;;;;;;;;;;5079834;28;20462;-82
2023/07/29 05:36:06;;;;;;;31.63;25.73;;;;;;;;;;5079359;28;21514;-81
2023/07/29 05:38:32;;;;;;;39.47;26.00;;;;;;;;;;5051276;28;20465;-82
2023/07/29 05:41:00;;;;;;;35.90;26.97;;;;;;;;;;5077878;28;20473;-82
2023/07/29 05:43:27;;;;;;;34.63;26.50;;;;;;;;;;5079922;28;20459;-81
2023/07/29 05:45:56;;;;;;;35.00;25.73;;;;;;;;;;5076497;28;20475;-81
2023/07/29 05:48:23;;;;;;;36.57;26.50;;;;;;;;;;5079425;28;20450;-81
2023/07/29 05:50:50;;;;;;;31.53;25.80;;;;;;;;;;5080463;28;21027;-81
2023/07/29 05:53:16;;;;;;;34.60;24.80;;;;;;;;;;5080329;28;20456;-83
2023/07/29 05:55:43;;;;;;;37.93;25.63;;;;;;;;;;5080409;28;20477;-82
2023/07/29 05:58:11;;;;;;;38.47;24.47;;;;;;;;;;5075555;28;20467;-82
2023/07/29 06:00:38;;;;;;;32.80;25.33;;;;;;;;;;5082146;28;20466;-81
2023/07/29 06:03:04;;;;;;;27.30;23.03;;;;;;;;;;5079688;28;20450;-81
2023/07/29 06:05:32;;;;;;;35.00;24.40;;;;;;;;;;5060284;28;20451;-82
2023/07/29 06:07:58;;;;;;;32.87;22.60;;;;;;;;;;5076934;28;20481;-82
2023/07/29 06:10:25;;;;;;;33.43;24.40;;;;;;;;;;5082025;28;20537;-82
2023/07/29 06:12:51;;;;;;;29.50;23.30;;;;;;;;;;5080272;28;20461;-82
2023/07/29 06:15:21;;;;;;;31.17;23.63;;;;;;;;;;5078440;28;21038;-81
2023/07/29 06:17:48;;;;;;;33.87;25.53;;;;;;;;;;5079608;28;20463;-81
2023/07/29 06:20:14;;;;;;;31.40;23.83;;;;;;;;;;5073147;28;20454;-82
2023/07/29 06:22:41;;;;;;;31.13;25.17;;;;;;;;;;5079837;28;20479;-81
2023/07/29 06:25:08;;;;;;;32.73;23.80;;;;;;;;;;5062890;28;20814;-82
2023/07/29 06:27:36;;;;;;;34.30;24.07;;;;;;;;;;5075902;28;20479;-82
2023/07/29 06:30:02;;;;;;;30.93;22.60;;;;;;;;;;5080898;28;20470;-82
2023/07/29 06:32:30;;;;;;;35.90;26.10;;;;;;;;;;5075673;28;21299;-82
2023/07/29 06:34:58;;;;;;;30.23;22.10;;;;;;;;;;5078722;28;20549;-82
2023/07/29 06:37:24;;;;;;;27.97;22.17;;;;;;;;;;5083052;28;20550;-82
2023/07/29 06:39:51;;;;;;;27.87;22.67;;;;;;;;;;5083114;28;20843;-81
2023/07/29 06:42:18;;;;;;;31.90;24.37;;;;;;;;;;5083661;28;20482;-81
2023/07/29 06:44:45;;;;;;;25.20;21.00;;;;;;;;;;5082343;28;20507;-81
2023/07/29 06:47:12;;;;;;;28.90;22.10;;;;;;;;;;5083368;28;21014;-81
2023/07/29 06:49:40;;;;;;;27.30;21.20;;;;;;;;;;5083514;28;20447;-81
2023/07/29 06:52:06;;;;;;;24.23;19.90;;;;;;;;;;5079022;28;20477;-81
2023/07/29 06:54:33;;;;;;;25.60;20.37;;;;;;;;;;5059341;28;20454;-81
2023/07/29 06:56:59;;;;;;;24.63;18.67;;;;;;;;;;5082136;28;20852;-81
2023/07/29 06:59:26;;;;;;;23.10;18.30;;;;;;;;;;5064704;28;20489;-81
2023/07/29 07:01:52;;;;;;;30.93;19.00;;;;;;;;;;5082582;28;20470;-81
2023/07/29 07:04:19;;;;;;;20.83;16.37;;;;;;;;;;5081990;28;20765;-80
2023/07/29 07:06:47;;;;;;;22.67;17.50;;;;;;;;;;5079119;28;20493;-80
2023/07/29 07:09:13;;;;;;;19.97;16.80;;;;;;;;;;5077485;28;20959;-81
2023/07/29 07:11:39;;;;;;;16.33;14.53;;;;;;;;;;5077735;28;20486;-80
2023/07/29 07:14:06;;;;;;;18.83;14.93;;;;;;;;;;5078774;28;20453;-80
2023/07/29 07:16:35;;;;;;;17.43;13.20;;;;;;;;;;5079868;28;20478;-80
2023/07/29 07:19:01;;;;;;;18.00;14.00;;;;;;;;;;5082181;28;20544;-80
2023/07/29 07:21:28;;;;;;;13.80;11.60;;;;;;;;;;5081104;28;20478;-79
2023/07/29 07:23:55;;;;;;;11.10;9.97;;;;;;;;;;5080737;28;20458;-80
2023/07/29 07:26:22;;;;;;;15.87;10.90;;;;;;;;;;5081635;28;21163;-80
2023/07/29 07:28:48;;;;;;;10.87;9.50;;;;;;;;;;5063503;28;20474;-80
2023/07/29 07:31:16;;;;;;;11.90;8.57;;;;;;;;;;5081454;28;20471;-80
2023/07/29 07:33:42;;;;;;;13.37;7.73;;;;;;;;;;5077804;28;20462;-78
2023/07/29 07:36:08;;;;;;;7.90;6.73;;;;;;;;;;5081327;28;20999;-80
2023/07/29 07:38:35;;;;;;;9.53;7.80;;;;;;;;;;5080805;28;20653;-80
2023/07/29 07:41:02;;;;;;;8.30;7.50;;;;;;;;;;5079818;28;20562;-78
2023/07/29 07:43:29;;;;;;;10.60;7.53;;;;;;;;;;5062980;28;20439;-80
2023/07/29 07:45:58;;;;;;;11.23;6.90;;;;;;;;;;5080972;28;20463;-83
2023/07/29 07:48:25;;;;;;;7.63;6.83;;;;;;;;;;5077662;28;20474;-79
2023/07/29 07:50:51;;;;;;;6.80;6.10;;;;;;;;;;5079624;28;20472;-79
2023/07/29 07:53:18;;;;;;;8.90;6.27;;;;;;;;;;5080046;28;20962;-78
2023/07/29 07:55:44;;;;;;;8.73;6.80;;;;;;;;;;5079299;28;20455;-81
2023/07/29 07:58:12;;;;;;;6.63;5.67;;;;;;;;;;5081370;28;20450;-81
2023/07/29 08:00:40;;;;;;;6.33;5.60;;;;;;;;;;5081458;28;20463;-79
2023/07/29 08:03:06;;;;;;;7.37;5.17;;;;;;;;;;5081281;28;20445;-80
2023/07/29 08:05:33;;;;;;;8.13;5.80;;;;;;;;;;5075945;28;20488;-80
2023/07/29 08:08:00;;;;;;;9.77;5.70;;;;;;;;;;5083282;28;20473;-80
2023/07/29 08:10:27;;;;;;;5.70;5.00;;;;;;;;;;5079640;28;20458;-79
2023/07/29 08:12:53;;;;;;;7.33;5.10;;;;;;;;;;5079560;28;20456;-80
2023/07/29 08:15:21;;;;;;;6.20;5.40;;;;;;;;;;5079612;28;20478;-82
2023/07/29 08:17:47;;;;;;;9.00;5.50;;;;;;;;;;5079057;28;20459;-80
2023/07/29 08:20:14;;;;;;;5.33;4.60;;;;;;;;;;5081385;28;20450;-82
2023/07/29 08:22:40;;;;;;;6.37;4.60;;;;;;;;;;5078096;28;20498;-82
2023/07/29 08:25:07;;;;;;;4.83;4.30;;;;;;;;;;5078347;28;20462;-81
2023/07/29 08:27:34;;;;;;;9.43;4.70;;;;;;;;;;5078774;28;20905;-79
2023/07/29 08:30:00;;;;;;;8.27;4.10;;;;;;;;;;5080191;28;20453;-82
2023/07/29 08:32:28;;;;;;;6.43;4.50;;;;;;;;;;5080171;28;20474;-80
2023/07/29 08:34:55;;;;;;;4.20;3.73;;;;;;;;;;5078716;28;20465;-81
2023/07/29 08:37:21;;;;;;;5.50;4.57;;;;;;;;;;5079410;28;20463;-80
2023/07/29 08:39:47;;;;;;;6.30;3.50;;;;;;;;;;5078291;28;20458;-80
2023/07/29 08:42:14;;;;;;;6.97;3.87;;;;;;;;;;5074553;28;20493;-79
2023/07/29 08:44:42;;;;;;;5.60;3.97;;;;;;;;;;5079196;28;20470;-79
2023/07/29 08:47:08;;;;;;;7.47;4.20;;;;;;;;;;5081776;28;21356;-79
2023/07/29 08:49:36;;;;;;;5.43;4.87;;;;;;;;;;5079055;28;20466;-82
2023/07/29 08:52:03;;;;;;;6.63;4.90;;;;;;;;;;5081303;28;20485;-81
2023/07/29 08:54:29;;;;;;;7.87;5.00;;;;;;;;;;5079809;28;20490;-80
2023/07/29 08:56:58;;;;;;;5.87;4.20;;;;;;;;;;5059305;28;21232;-80
2023/07/29 08:59:25;;;;;;;6.50;4.73;;;;;;;;;;5077039;28;20984;-80
2023/07/29 09:01:55;;;;;;;7.03;4.90;;;;;;;;;;5070636;28;20483;-80
2023/07/29 09:04:23;;;;;;;8.10;5.40;;;;;;;;;;5059283;28;20549;-80
2023/07/29 09:06:51;;;;;;;5.93;4.80;;;;;;;;;;5076811;28;20511;-79
2023/07/29 09:09:18;;;;;;;6.30;4.53;;;;;;;;;;5066215;28;20483;-79
2023/07/29 09:11:45;;;;;;;7.10;4.50;;;;;;;;;;5075892;28;20474;-78
2023/07/29 09:14:12;;;;;;;6.53;4.87;;;;;;;;;;5046824;28;20507;-79
2023/07/29 09:16:39;;;;;;;6.70;4.67;;;;;;;;;;5074321;28;20485;-81
2023/07/29 09:19:06;;;;;;;7.60;5.30;;;;;;;;;;5072165;28;20454;-80
2023/07/29 09:21:32;;;;;;;7.17;5.50;;;;;;;;;;5078756;28;20487;-80
2023/07/29 09:24:03;;;;;;;5.47;4.40;;;;;;;;;;5077834;28;20505;-80
2023/07/29 09:26:31;;;;;;;6.30;4.20;;;;;;;;;;5075905;28;20475;-79
2023/07/29 09:28:58;;;;;;;4.40;4.00;;;;;;;;;;5077388;28;20478;-80
2023/07/29 09:31:24;;;;;;;7.30;5.33;;;;;;;;;;5056183;28;20487;-80
2023/07/29 09:33:51;;;;;;;8.17;5.17;;;;;;;;;;5058957;28;20473;-80
2023/07/29 09:36:17;;;;;;;5.80;4.73;;;;;;;;;;5076408;28;20466;-80
2023/07/29 09:38:44;;;;;;;7.73;5.10;;;;;;;;;;5059392;28;20824;-80
2023/07/29 09:41:14;;;;;;;6.07;4.90;;;;;;;;;;5075811;28;20475;-80
2023/07/29 09:43:40;;;;;;;6.07;5.10;;;;;;;;;;5077066;28;20879;-80
2023/07/29 09:46:07;;;;;;;6.10;4.43;;;;;;;;;;5058521;28;20465;-79
2023/07/29 09:48:34;;;;;;;5.57;4.80;;;;;;;;;;5074769;28;20505;-80
2023/07/29 09:51:00;;;;;;;11.30;6.80;;;;;;;;;;5077545;28;20496;-80
2023/07/29 09:53:27;;;;;;;6.10;5.50;;;;;;;;;;5078014;28;20459;-80
2023/07/29 09:55:54;;;;;;;6.27;5.67;;;;;;;;;;5077431;28;20481;-78
2023/07/29 09:58:27;;;;;;;6.50;4.60;;;;;;;;;;5080438;28;20454;-80
2023/07/29 10:00:54;;;;;;;4.90;4.20;;;;;;;;;;5076204;28;20490;-79
2023/07/29 10:03:21;;;;;;;5.10;4.60;;;;;;;;;;5045768;28;20840;-78
2023/07/29 10:05:48;;;;;;;5.10;3.77;;;;;;;;;;5079241;28;20465;-79
2023/07/29 10:08:14;;;;;;;8.60;3.70;;;;;;;;;;5064143;28;20477;-79
2023/07/29 10:10:42;;;;;;;4.70;4.30;;;;;;;;;;5061205;28;20887;-78
2023/07/29 10:13:10;;;;;;;4.10;3.80;;;;;;;;;;5078037;28;20476;-78
2023/07/29 10:15:38;;;;;;;4.37;3.97;;;;;;;;;;5077257;28;20461;-79
2023/07/29 10:18:04;;;;;;;4.83;3.73;;;;;;;;;;5079141;28;20465;-79
2023/07/29 10:20:31;;;;;;;4.60;3.77;;;;;;;;;;5046854;28;20522;-79
2023/07/29 10:22:59;;;;;;;6.97;4.80;;;;;;;;;;5080927;28;20466;-79
2023/07/29 10:25:27;;;;;;;5.13;4.47;;;;;;;;;;5076705;28;20532;-79
2023/07/29 10:27:56;;;;;;;4.47;3.77;;;;;;;;;;5080208;28;20492;-79
2023/07/29 10:30:24;;;;;;;6.90;4.83;;;;;;;;;;5074652;28;20450;-79
2023/07/29 10:32:52;;;;;;;4.30;3.90;;;;;;;;;;5080973;28;20842;-79
2023/07/29 10:35:19;;;;;;;4.13;3.70;;;;;;;;;;5079743;28;20462;-79
2023/07/29 10:37:46;;;;;;;5.27;3.63;;;;;;;;;;5079042;28;20527;-79
2023/07/29 10:40:12;;;;;;;5.63;3.50;;;;;;;;;;5075276;28;20451;-79
2023/07/29 10:42:39;;;;;;;4.40;3.93;;;;;;;;;;5079369;28;20482;-79
2023/07/29 10:45:18;;;;;;;4.40;4.00;;;;;;;;;;5077878;28;20462;-79
2023/07/29 10:47:45;;;;;;;4.10;3.80;;;;;;;;;;5077118;28;20482;-79
2023/07/29 10:50:19;;;;;;;4.63;4.10;;;;;;;;;;5045821;28;20534;-79
2023/07/29 10:52:49;;;;;;;6.10;4.30;;;;;;;;;;5079824;28;20504;-79
2023/07/29 10:55:26;;;;;;;4.30;3.90;;;;;;;;;;5073737;28;20465;-78
2023/07/29 10:57:52;;;;;;;7.70;5.17;;;;;;;;;;5077802;28;20470;-78
2023/07/29 11:00:20;;;;;;;4.07;3.67;;;;;;;;;;5080962;28;20458;-80
2023/07/29 11:02:57;;;;;;;5.20;4.00;;;;;;;;;;5074602;28;20470;-79
2023/07/29 11:05:25;;;;;;;4.17;3.80;;;;;;;;;;5078496;28;20458;-79
2023/07/29 11:07:51;;;;;;;4.60;3.83;;;;;;;;;;5080989;28;20454;-79
2023/07/29 11:10:18;;;;;;;4.03;3.00;;;;;;;;;;5058364;28;20526;-79
2023/07/29 11:12:47;;;;;;;4.23;3.67;;;;;;;;;;5078114;28;20939;-79
2023/07/29 11:15:18;;;;;;;4.00;3.70;;;;;;;;;;5048419;28;20488;-79
2023/07/29 11:17:47;;;;;;;3.80;3.17;;;;;;;;;;5077816;28;20523;-80
2023/07/29 11:20:14;;;;;;;3.77;3.47;;;;;;;;;;5077349;28;20485;-80
2023/07/29 11:22:43;;;;;;;4.07;3.43;;;;;;;;;;5062343;28;20525;-79
2023/07/29 11:25:12;;;;;;;3.97;3.67;;;;;;;;;;5079056;28;20975;-79
2023/07/29 11:27:39;;;;;;;4.00;3.60;;;;;;;;;;5078158;28;20490;-80
2023/07/29 11:30:07;;;;;;;3.73;3.33;;;;;;;;;;5080659;28;20482;-79
2023/07/29 11:32:33;;;;;;;3.30;2.97;;;;;;;;;;5062022;28;20479;-79
2023/07/29 11:35:04;;;;;;;3.57;3.27;;;;;;;;;;5076336;28;20524;-78
2023/07/29 11:37:30;;;;;;;2.93;2.73;;;;;;;;;;5077522;28;20477;-80
2023/07/29 11:39:58;;;;;;;7.10;3.33;;;;;;;;;;5078226;28;20465;-79
2023/07/29 11:42:25;;;;;;;4.67;3.30;;;;;;;;;;5076734;28;20479;-80
2023/07/29 11:44:51;;;;;;;4.63;3.93;;;;;;;;;;5075084;28;20462;-79
2023/07/29 11:47:17;;;;;;;4.03;2.90;;;;;;;;;;5076865;28;20481;-79
2023/07/29 11:49:45;;;;;;;4.77;3.27;;;;;;;;;;5075533;28;20488;-79
2023/07/29 11:52:12;;;;;;;3.67;3.37;;;;;;;;;;5077159;28;21069;-79
2023/07/29 11:54:39;;;;;;;4.43;4.03;;;;;;;;;;5075545;28;20934;-79
2023/07/29 11:57:08;;;;;;;4.20;3.20;;;;;;;;;;5059475;28;20991;-80
2023/07/29 11:59:35;;;;;;;3.67;2.77;;;;;;;;;;5078943;28;20455;-79
2023/07/29 12:02:03;;;;;;;5.37;3.20;;;;;;;;;;5076827;28;20482;-80
2023/07/29 12:04:30;;;;;;;3.40;3.10;;;;;;;;;;5076863;28;20465;-79
2023/07/29 12:06:57;;;;;;;3.53;2.97;;;;;;;;;;5077246;28;20478;-79
2023/07/29 12:09:23;;;;;;;4.20;3.13;;;;;;;;;;5046183;28;20527;-79
2023/07/29 12:11:50;;;;;;;3.40;3.10;;;;;;;;;;5073871;28;20481;-79
2023/07/29 12:14:18;;;;;;;5.43;3.93;;;;;;;;;;5077762;28;20477;-79
2023/07/29 12:16:45;;;;;;;5.40;3.40;;;;;;;;;;5075425;28;21028;-79
2023/07/29 12:19:12;;;;;;;4.63;3.70;;;;;;;;;;5076756;28;21256;-79
2023/07/29 12:21:41;;;;;;;5.37;3.60;;;;;;;;;;5070304;28;20483;-79
2023/07/29 12:24:07;;;;;;;7.40;3.53;;;;;;;;;;5076421;28;20465;-80
2023/07/29 12:26:35;;;;;;;3.17;2.87;;;;;;;;;;5076814;28;20478;-80
2023/07/29 12:29:11;;;;;;;3.47;3.10;;;;;;;;;;5071580;28;20544;-80
2023/07/29 12:31:39;;;;;;;4.87;2.90;;;;;;;;;;5074716;28;20474;-80
2023/07/29 12:34:06;;;;;;;4.03;3.00;;;;;;;;;;5080915;28;20462;-80
2023/07/29 12:36:44;;;;;;;6.90;3.70;;;;;;;;;;5057608;28;20479;-80
2023/07/29 12:39:18;;;;;;;2.87;2.53;;;;;;;;;;5080731;28;20516;-80
2023/07/29 12:41:44;;;;;;;6.13;2.43;;;;;;;;;;5079720;28;20474;-80
2023/07/29 12:44:11;;;;;;;3.30;2.43;;;;;;;;;;5078290;28;20462;-79
2023/07/29 12:46:37;;;;;;;6.13;3.40;;;;;;;;;;5079091;28;20489;-80
2023/07/29 12:49:05;;;;;;;3.13;2.90;;;;;;;;;;5077940;28;20478;-80
2023/07/29 12:51:33;;;;;;;5.00;2.80;;;;;;;;;;5081347;28;20520;-79
2023/07/29 12:54:00;;;;;;;7.13;3.50;;;;;;;;;;5048850;28;20451;-80
2023/07/29 12:56:26;;;;;;;2.97;2.70;;;;;;;;;;5080259;28;20506;-81
2023/07/29 12:58:52;;;;;;;3.93;3.03;;;;;;;;;;5079804;28;20451;-79
2023/07/29 13:01:19;;;;;;;3.13;2.67;;;;;;;;;;5080622;28;20473;-80
2023/07/29 13:03:46;;;;;;;4.37;3.00;;;;;;;;;;5078930;28;21042;-80
2023/07/29 13:06:13;;;;;;;3.37;2.90;;;;;;;;;;5079637;28;20465;-79
2023/07/29 13:08:40;;;;;;;3.53;2.47;;;;;;;;;;5080541;28;20489;-81
2023/07/29 13:11:06;;;;;;;4.13;2.60;;;;;;;;;;5077584;28;20480;-80
2023/07/29 13:13:33;;;;;;;2.73;2.20;;;;;;;;;;5079946;28;20457;-80
2023/07/29 13:15:59;;;;;;;4.10;2.50;;;;;;;;;;5077142;28;20475;-79
2023/07/29 13:18:26;;;;;;;3.10;2.43;;;;;;;;;;5080551;28;20450;-80
2023/07/29 13:20:53;;;;;;;5.33;2.80;;;;;;;;;;5073928;28;20489;-79
2023/07/29 13:23:20;;;;;;;3.80;2.40;;;;;;;;;;5049795;28;20442;-79
2023/07/29 13:25:47;;;;;;;2.93;2.60;;;;;;;;;;5079103;28;21001;-78
2023/07/29 13:28:13;;;;;;;3.00;2.40;;;;;;;;;;5064642;28;20441;-79
2023/07/29 13:30:40;;;;;;;3.73;2.43;;;;;;;;;;5085589;28;21010;-80
2023/07/29 13:33:06;;;;;;;2.93;2.27;;;;;;;;;;5082681;28;20967;-79
2023/07/29 13:35:33;;;;;;;2.50;2.30;;;;;;;;;;5064775;28;20447;-80
2023/07/29 13:38:00;;;;;;;3.60;2.30;;;;;;;;;;5084496;28;20465;-79
2023/07/29 13:40:27;;;;;;;3.57;2.37;;;;;;;;;;5085958;28;20472;-81
2023/07/29 13:42:55;;;;;;;5.20;3.13;;;;;;;;;;5082224;28;20458;-80
2023/07/29 13:45:22;;;;;;;3.90;2.63;;;;;;;;;;5084702;28;20438;-80
2023/07/29 13:47:48;;;;;;;3.57;3.00;;;;;;;;;;5082784;28;20458;-80
2023/07/29 13:50:15;;;;;;;4.40;2.43;;;;;;;;;;5083689;28;20474;-80
2023/07/29 13:52:41;;;;;;;2.57;2.37;;;;;;;;;;5083086;28;20555;-80
2023/07/29 13:55:08;;;;;;;3.20;2.50;;;;;;;;;;5084226;28;20446;-80
2023/07/29 13:57:36;;;;;;;4.10;2.70;;;;;;;;;;5077084;28;20490;-81
2023/07/29 14:00:02;;;;;;;4.67;2.67;;;;;;;;;;5082928;28;20458;-80
2023/07/29 14:02:30;;;;;;;3.30;2.83;;;;;;;;;;5084391;28;20478;-81
2023/07/29 14:04:57;;;;;;;2.10;2.00;;;;;;;;;;5084164;28;20479;-80
2023/07/29 14:07:23;;;;;;;2.93;2.33;;;;;;;;;;5079661;28;20474;-80
2023/07/29 14:09:50;;;;;;;4.87;2.40;;;;;;;;;;5083922;28;20497;-80
2023/07/29 14:12:16;;;;;;;2.87;2.43;;;;;;;;;;5078122;28;20480;-80
2023/07/29 14:14:44;;;;;;;6.27;2.67;;;;;;;;;;5058542;28;20462;-80
2023/07/29 14:17:10;;;;;;;3.13;2.30;;;;;;;;;;5082286;28;20467;-80
2023/07/29 14:19:37;;;;;;;1.80;1.53;;;;;;;;;;5074113;28;20482;-80
2023/07/29 14:22:03;;;;;;;4.50;2.37;;;;;;;;;;5082186;28;20999;-79
2023/07/29 14:24:30;;;;;;;4.13;2.00;;;;;;;;;;5082977;28;20939;-80
2023/07/29 14:26:56;;;;;;;2.93;2.63;;;;;;;;;;5062236;28;20471;-80
2023/07/29 14:29:22;;;;;;;6.80;2.70;;;;;;;;;;5079052;28;20478;-80